KHIE/HIE METAR and TAF weather

Enter ICAO airport designator
Station Type Date Time Source
KHIE METAR 2022/06/27 07:52 UTC NOAA

KHIE 270752Z AUTO 00000KT 10SM BKN100 19/16 A2986 RMK AO2 SLP106 T01890161


Station Type Date Time Source
KHIE Decoded METAR 2022/06/27 07:52 UTC NOAA

MT WASHINGTON REGIONAL AIRPORT , NH, United States (KHIE) 44-22N 71-33W 318M
Jun 27, 2022 - 03:52 AM EDT / 2022.06.27 0752 UTC
Wind: Calm:0
Visibility: 10 mile(s):0
Sky conditions: mostly cloudy
Temperature: 66.0 F (18.9 C)
Dew Point: 61.0 F (16.1 C)
Relative Humidity: 83%
Pressure (altimeter): 29.86 in. Hg (1011 hPa)
ob: KHIE 270752Z AUTO 00000KT 10SM BKN100 19/16 A2986 RMK AO2 SLP106 T01890161
cycle: 8

Station Type Date Time Source
KHIE TAF 2022/06/27 06:42 UTC NOAA

TAF KHIE 270539Z 2706/2806 18007KT P6SM BKN250
FM271000 19006KT 6SM -SHRA BR OVC025
FM271200 20006KT 3SM -SHRA BR OVC015
FM271800 26006KT P6SM OVC025
FM271900 28006KT P6SM BKN050

Example: see airport list